仁川, 大韓民國

2015年1月31日 03時26分 (GMT +0900)
Incheon International | Change Station
CLOSE
Current Station
機場
Location: Incheon,
海拔: 23 ft
附近的氣象站

海拔 23 ft 37.47 °N, 126.45 °E | Updated 26 minutes ago

Clear
晴天
19 °F
感覺像 9 °F
9
風 變化 風 來自

今日
高 -- | 低 -- °F
--% 降水機率
昨天
高 -- | 低 -- °F
Precip. -- 英寸
7:38 AM 5:55 PM
盈凸月, 84% visible
氣壓 30.42 英寸
能見度 -9999.0 英里
多雲
風寒指數 9 °F
露點 7 °F
濕度 58%
降雨量 0.00 英寸
積雪深度 不適用。
紫外線 不適用。
花粉 不適用。
空氣質素 不適用。
Flu Activity 不適用。
METAR RKSI 301800Z 36008KT CAVOK M07/M14 Q1030 NOSIG

More Conditions Fewer Conditions

氣壓 30.42 英寸
能見度 -9999.0 英里
多雲
風寒指數 9 °F
露點 7 °F
濕度 58%
降雨量 0.00 英寸
積雪深度 不適用。
紫外線 不適用。
花粉 不適用。
空氣質素 不適用。
Flu Activity 不適用。
METAR RKSI 301800Z 36008KT CAVOK M07/M14 Q1030 NOSIG

More Conditions Fewer Conditions

10-Day Weather Forecast

Almanac

天文

Jan. 31, 2015 昇起 降落
實際時間
民用曙暮光
航海曙暮光
天文學微明
月亮
可見光的長度
白晝時間
Tomorrow will be .
, % of the Moon is Illuminated

今天之最

國家高溫 國家低溫

Community

WunderPhotos

Upload Photos

1,791,854 照片已上傳!

WunderBlogs® & News

Nearby

空氣質素

  空氣質素 空氣質素指數 污染物
Not available.

積雪量

Station 深度 海拔

地震活動

城市 距離 時間和日期
顯示的最小幅度是2.5。

沿海水溫

地點 溫度

附近的氣象站